sensor_id;sensor_type;location;lat;lon;timestamp;P1;durP1;ratioP1;P2;durP2;ratioP2
79173;SDS011;68599;49.142;9.124;2024-02-14T00:02:04;4.30;;;1.60;;
79173;SDS011;68599;49.142;9.124;2024-02-14T00:04:32;3.10;;;1.90;;
79173;SDS011;68599;49.142;9.124;2024-02-14T00:06:58;2.50;;;1.50;;
79173;SDS011;68599;49.142;9.124;2024-02-14T00:09:25;4.60;;;2.50;;
79173;SDS011;68599;49.142;9.124;2024-02-14T00:11:52;4.20;;;1.90;;
79173;SDS011;68599;49.142;9.124;2024-02-14T00:14:18;3.70;;;1.40;;
79173;SDS011;68599;49.142;9.124;2024-02-14T00:16:46;3.10;;;1.70;;
79173;SDS011;68599;49.142;9.124;2024-02-14T00:19:13;3.70;;;1.50;;
79173;SDS011;68599;49.142;9.124;2024-02-14T00:21:40;7.00;;;2.20;;
79173;SDS011;68599;49.142;9.124;2024-02-14T00:24:07;3.90;;;1.80;;
79173;SDS011;68599;49.142;9.124;2024-02-14T00:26:34;6.80;;;2.90;;
79173;SDS011;68599;49.142;9.124;2024-02-14T00:29:01;3.80;;;1.70;;
79173;SDS011;68599;49.142;9.124;2024-02-14T00:31:27;6.70;;;2.60;;
79173;SDS011;68599;49.142;9.124;2024-02-14T00:33:55;4.40;;;2.30;;
79173;SDS011;68599;49.142;9.124;2024-02-14T00:36:22;5.70;;;2.30;;
79173;SDS011;68599;49.142;9.124;2024-02-14T00:38:49;4.00;;;1.50;;
79173;SDS011;68599;49.142;9.124;2024-02-14T00:41:16;1.70;;;0.90;;
79173;SDS011;68599;49.142;9.124;2024-02-14T00:43:42;3.60;;;2.10;;
79173;SDS011;68599;49.142;9.124;2024-02-14T00:46:09;3.30;;;1.70;;
79173;SDS011;68599;49.142;9.124;2024-02-14T00:48:35;4.50;;;1.40;;
79173;SDS011;68599;49.142;9.124;2024-02-14T00:51:02;6.40;;;2.00;;
79173;SDS011;68599;49.142;9.124;2024-02-14T00:53:29;4.20;;;2.10;;
79173;SDS011;68599;49.142;9.124;2024-02-14T00:55:56;6.10;;;1.90;;
79173;SDS011;68599;49.142;9.124;2024-02-14T00:58:22;4.60;;;2.00;;
79173;SDS011;68599;49.142;9.124;2024-02-14T01:00:49;4.50;;;1.70;;
79173;SDS011;68599;49.142;9.124;2024-02-14T01:03:15;5.80;;;2.20;;
79173;SDS011;68599;49.142;9.124;2024-02-14T01:08:10;3.50;;;1.90;;
79173;SDS011;68599;49.142;9.124;2024-02-14T01:10:37;6.30;;;2.40;;
79173;SDS011;68599;49.142;9.124;2024-02-14T01:13:03;5.10;;;2.10;;
79173;SDS011;68599;49.142;9.124;2024-02-14T01:15:31;6.30;;;2.60;;
79173;SDS011;68599;49.142;9.124;2024-02-14T01:17:57;4.80;;;2.10;;
79173;SDS011;68599;49.142;9.124;2024-02-14T01:20:24;4.20;;;1.70;;
79173;SDS011;68599;49.142;9.124;2024-02-14T01:22:51;3.20;;;1.60;;
79173;SDS011;68599;49.142;9.124;2024-02-14T01:25:19;5.60;;;2.50;;
79173;SDS011;68599;49.142;9.124;2024-02-14T01:27:45;5.60;;;2.40;;
79173;SDS011;68599;49.142;9.124;2024-02-14T01:30:12;3.40;;;2.20;;
79173;SDS011;68599;49.142;9.124;2024-02-14T01:32:38;4.90;;;2.50;;
79173;SDS011;68599;49.142;9.124;2024-02-14T01:35:06;4.50;;;2.10;;
79173;SDS011;68599;49.142;9.124;2024-02-14T01:37:33;3.90;;;2.10;;
79173;SDS011;68599;49.142;9.124;2024-02-14T01:39:59;3.10;;;1.00;;
79173;SDS011;68599;49.142;9.124;2024-02-14T01:42:26;4.00;;;2.10;;
79173;SDS011;68599;49.142;9.124;2024-02-14T01:44:54;4.70;;;2.40;;
79173;SDS011;68599;49.142;9.124;2024-02-14T01:47:23;7.00;;;2.30;;
79173;SDS011;68599;49.142;9.124;2024-02-14T01:49:50;3.00;;;1.70;;
79173;SDS011;68599;49.142;9.124;2024-02-14T01:52:17;4.30;;;2.30;;
79173;SDS011;68599;49.142;9.124;2024-02-14T01:54:44;4.60;;;2.20;;
79173;SDS011;68599;49.142;9.124;2024-02-14T01:57:10;4.30;;;2.00;;
79173;SDS011;68599;49.142;9.124;2024-02-14T01:59:37;4.10;;;2.10;;
79173;SDS011;68599;49.142;9.124;2024-02-14T02:02:04;5.80;;;3.10;;
79173;SDS011;68599;49.142;9.124;2024-02-14T02:04:33;5.30;;;1.80;;
79173;SDS011;68599;49.142;9.124;2024-02-14T02:07:01;4.60;;;2.00;;
79173;SDS011;68599;49.142;9.124;2024-02-14T02:09:27;4.90;;;2.10;;
79173;SDS011;68599;49.142;9.124;2024-02-14T02:11:54;4.80;;;2.00;;
79173;SDS011;68599;49.142;9.124;2024-02-14T02:14:22;4.90;;;1.70;;
79173;SDS011;68599;49.142;9.124;2024-02-14T02:16:49;4.40;;;2.00;;
79173;SDS011;68599;49.142;9.124;2024-02-14T02:19:15;5.80;;;2.00;;
79173;SDS011;68599;49.142;9.124;2024-02-14T02:21:43;5.90;;;1.60;;
79173;SDS011;68599;49.142;9.124;2024-02-14T02:24:13;6.00;;;1.80;;
79173;SDS011;68599;49.142;9.124;2024-02-14T02:26:39;2.90;;;1.40;;
79173;SDS011;68599;49.142;9.124;2024-02-14T02:29:06;3.90;;;1.70;;
79173;SDS011;68599;49.142;9.124;2024-02-14T02:31:32;4.20;;;2.30;;
79173;SDS011;68599;49.142;9.124;2024-02-14T02:33:59;4.20;;;1.90;;
79173;SDS011;68599;49.142;9.124;2024-02-14T02:36:26;4.50;;;1.80;;
79173;SDS011;68599;49.142;9.124;2024-02-14T02:38:56;5.10;;;2.00;;
79173;SDS011;68599;49.142;9.124;2024-02-14T02:41:24;4.20;;;1.60;;
79173;SDS011;68599;49.142;9.124;2024-02-14T02:43:51;4.70;;;2.40;;
79173;SDS011;68599;49.142;9.124;2024-02-14T02:46:20;3.40;;;1.90;;
79173;SDS011;68599;49.142;9.124;2024-02-14T02:48:48;6.00;;;2.00;;
79173;SDS011;68599;49.142;9.124;2024-02-14T02:51:18;1.70;;;1.20;;
79173;SDS011;68599;49.142;9.124;2024-02-14T02:53:44;3.80;;;1.40;;
79173;SDS011;68599;49.142;9.124;2024-02-14T02:56:11;6.40;;;1.60;;
79173;SDS011;68599;49.142;9.124;2024-02-14T02:58:38;6.60;;;1.60;;
79173;SDS011;68599;49.142;9.124;2024-02-14T03:01:08;5.80;;;2.20;;
79173;SDS011;68599;49.142;9.124;2024-02-14T03:03:38;3.80;;;1.30;;
79173;SDS011;68599;49.142;9.124;2024-02-14T03:06:05;4.80;;;1.70;;
79173;SDS011;68599;49.142;9.124;2024-02-14T03:08:33;3.90;;;1.80;;
79173;SDS011;68599;49.142;9.124;2024-02-14T03:11:04;3.50;;;1.70;;
79173;SDS011;68599;49.142;9.124;2024-02-14T03:13:32;4.00;;;1.70;;
79173;SDS011;68599;49.142;9.124;2024-02-14T03:15:59;2.70;;;1.20;;
79173;SDS011;68599;49.142;9.124;2024-02-14T03:18:26;2.40;;;1.30;;
79173;SDS011;68599;49.142;9.124;2024-02-14T03:20:52;2.60;;;1.10;;
79173;SDS011;68599;49.142;9.124;2024-02-14T03:23:22;2.10;;;1.20;;
79173;SDS011;68599;49.142;9.124;2024-02-14T03:25:49;3.20;;;1.40;;
79173;SDS011;68599;49.142;9.124;2024-02-14T03:28:17;5.50;;;1.80;;
79173;SDS011;68599;49.142;9.124;2024-02-14T03:30:44;3.40;;;1.30;;
79173;SDS011;68599;49.142;9.124;2024-02-14T03:33:10;4.30;;;1.50;;
79173;SDS011;68599;49.142;9.124;2024-02-14T03:35:37;2.40;;;0.90;;
79173;SDS011;68599;49.142;9.124;2024-02-14T03:38:04;3.70;;;1.50;;
79173;SDS011;68599;49.142;9.124;2024-02-14T03:40:31;4.40;;;1.70;;
79173;SDS011;68599;49.142;9.124;2024-02-14T03:42:58;3.80;;;1.60;;
79173;SDS011;68599;49.142;9.124;2024-02-14T03:45:24;7.00;;;1.90;;
79173;SDS011;68599;49.142;9.124;2024-02-14T03:47:51;3.70;;;1.00;;
79173;SDS011;68599;49.142;9.124;2024-02-14T03:50:18;3.00;;;1.30;;
79173;SDS011;68599;49.142;9.124;2024-02-14T03:52:44;4.20;;;1.80;;
79173;SDS011;68599;49.142;9.124;2024-02-14T03:55:13;3.50;;;1.60;;
79173;SDS011;68599;49.142;9.124;2024-02-14T03:57:40;1.90;;;1.10;;
79173;SDS011;68599;49.142;9.124;2024-02-14T04:00:08;3.00;;;1.30;;
79173;SDS011;68599;49.142;9.124;2024-02-14T04:02:37;4.10;;;1.50;;
79173;SDS011;68599;49.142;9.124;2024-02-14T04:05:06;3.50;;;1.30;;
79173;SDS011;68599;49.142;9.124;2024-02-14T04:07:34;1.90;;;1.20;;
79173;SDS011;68599;49.142;9.124;2024-02-14T04:10:01;2.70;;;1.30;;
79173;SDS011;68599;49.142;9.124;2024-02-14T04:12:27;3.40;;;1.80;;
79173;SDS011;68599;49.142;9.124;2024-02-14T04:14:54;2.40;;;1.00;;
79173;SDS011;68599;49.142;9.124;2024-02-14T04:17:21;1.90;;;1.10;;
79173;SDS011;68599;49.142;9.124;2024-02-14T04:19:48;3.50;;;1.10;;
79173;SDS011;68599;49.142;9.124;2024-02-14T04:22:14;3.70;;;1.80;;
79173;SDS011;68599;49.142;9.124;2024-02-14T04:24:41;7.20;;;2.20;;
79173;SDS011;68599;49.142;9.124;2024-02-14T04:27:08;4.30;;;1.20;;
79173;SDS011;68599;49.142;9.124;2024-02-14T04:29:34;3.80;;;1.70;;
79173;SDS011;68599;49.142;9.124;2024-02-14T04:32:02;5.00;;;1.70;;
79173;SDS011;68599;49.142;9.124;2024-02-14T04:34:29;4.30;;;1.70;;
79173;SDS011;68599;49.142;9.124;2024-02-14T04:36:57;3.80;;;1.70;;
79173;SDS011;68599;49.142;9.124;2024-02-14T04:39:24;2.80;;;1.60;;
79173;SDS011;68599;49.142;9.124;2024-02-14T04:41:51;3.90;;;1.20;;
79173;SDS011;68599;49.142;9.124;2024-02-14T04:44:27;4.60;;;1.70;;
79173;SDS011;68599;49.142;9.124;2024-02-14T04:47:04;4.20;;;1.90;;
79173;SDS011;68599;49.142;9.124;2024-02-14T04:49:31;5.30;;;1.50;;
79173;SDS011;68599;49.142;9.124;2024-02-14T04:51:58;3.60;;;1.20;;
79173;SDS011;68599;49.142;9.124;2024-02-14T04:54:25;3.40;;;1.20;;
79173;SDS011;68599;49.142;9.124;2024-02-14T04:56:53;2.90;;;1.60;;
79173;SDS011;68599;49.142;9.124;2024-02-14T04:59:24;2.70;;;1.30;;
79173;SDS011;68599;49.142;9.124;2024-02-14T05:01:51;2.30;;;1.00;;
79173;SDS011;68599;49.142;9.124;2024-02-14T05:04:20;3.40;;;1.80;;
79173;SDS011;68599;49.142;9.124;2024-02-14T05:06:47;2.50;;;1.60;;
79173;SDS011;68599;49.142;9.124;2024-02-14T05:09:15;4.50;;;1.30;;
79173;SDS011;68599;49.142;9.124;2024-02-14T05:11:42;3.00;;;1.60;;
79173;SDS011;68599;49.142;9.124;2024-02-14T05:14:08;4.30;;;0.90;;
79173;SDS011;68599;49.142;9.124;2024-02-14T05:16:35;3.50;;;1.00;;
79173;SDS011;68599;49.142;9.124;2024-02-14T05:19:01;2.10;;;1.20;;
79173;SDS011;68599;49.142;9.124;2024-02-14T05:21:28;3.10;;;1.30;;
79173;SDS011;68599;49.142;9.124;2024-02-14T05:26:22;2.60;;;1.20;;
79173;SDS011;68599;49.142;9.124;2024-02-14T05:28:49;1.70;;;0.80;;
79173;SDS011;68599;49.142;9.124;2024-02-14T05:31:15;3.70;;;1.50;;
79173;SDS011;68599;49.142;9.124;2024-02-14T05:33:42;4.90;;;1.50;;
79173;SDS011;68599;49.142;9.124;2024-02-14T05:36:09;6.00;;;1.50;;
79173;SDS011;68599;49.142;9.124;2024-02-14T05:38:36;4.30;;;1.30;;
79173;SDS011;68599;49.142;9.124;2024-02-14T05:41:03;3.00;;;1.50;;
79173;SDS011;68599;49.142;9.124;2024-02-14T05:43:30;3.60;;;1.60;;
79173;SDS011;68599;49.142;9.124;2024-02-14T05:45:56;2.70;;;1.20;;
79173;SDS011;68599;49.142;9.124;2024-02-14T05:48:23;3.50;;;1.70;;
79173;SDS011;68599;49.142;9.124;2024-02-14T05:50:49;2.60;;;1.00;;
79173;SDS011;68599;49.142;9.124;2024-02-14T05:53:16;2.60;;;1.30;;
79173;SDS011;68599;49.142;9.124;2024-02-14T05:55:43;1.60;;;1.10;;
79173;SDS011;68599;49.142;9.124;2024-02-14T05:58:10;3.10;;;1.20;;
79173;SDS011;68599;49.142;9.124;2024-02-14T06:00:38;1.90;;;1.00;;
79173;SDS011;68599;49.142;9.124;2024-02-14T06:03:05;3.20;;;1.20;;
79173;SDS011;68599;49.142;9.124;2024-02-14T06:05:33;4.60;;;0.90;;
79173;SDS011;68599;49.142;9.124;2024-02-14T06:10:29;3.10;;;1.00;;
79173;SDS011;68599;49.142;9.124;2024-02-14T06:12:56;1.70;;;0.90;;
79173;SDS011;68599;49.142;9.124;2024-02-14T06:15:23;1.80;;;0.80;;
79173;SDS011;68599;49.142;9.124;2024-02-14T06:17:50;3.30;;;1.20;;
79173;SDS011;68599;49.142;9.124;2024-02-14T06:20:16;2.30;;;1.10;;
79173;SDS011;68599;49.142;9.124;2024-02-14T06:22:43;4.80;;;1.50;;
79173;SDS011;68599;49.142;9.124;2024-02-14T06:25:22;3.10;;;1.00;;
79173;SDS011;68599;49.142;9.124;2024-02-14T06:27:49;2.90;;;1.10;;
79173;SDS011;68599;49.142;9.124;2024-02-14T06:30:16;3.90;;;1.20;;
79173;SDS011;68599;49.142;9.124;2024-02-14T06:32:44;3.40;;;1.70;;
79173;SDS011;68599;49.142;9.124;2024-02-14T06:35:11;2.70;;;1.20;;
79173;SDS011;68599;49.142;9.124;2024-02-14T06:37:38;2.30;;;1.10;;
79173;SDS011;68599;49.142;9.124;2024-02-14T06:40:18;2.70;;;1.20;;
79173;SDS011;68599;49.142;9.124;2024-02-14T06:42:44;3.20;;;1.40;;
79173;SDS011;68599;49.142;9.124;2024-02-14T06:45:11;3.20;;;1.20;;
79173;SDS011;68599;49.142;9.124;2024-02-14T06:47:38;3.10;;;1.20;;
79173;SDS011;68599;49.142;9.124;2024-02-14T06:50:05;2.50;;;0.80;;
79173;SDS011;68599;49.142;9.124;2024-02-14T06:52:34;2.20;;;1.20;;
79173;SDS011;68599;49.142;9.124;2024-02-14T06:55:01;2.30;;;0.50;;
79173;SDS011;68599;49.142;9.124;2024-02-14T06:57:30;2.90;;;1.30;;
79173;SDS011;68599;49.142;9.124;2024-02-14T06:59:56;2.20;;;0.90;;
79173;SDS011;68599;49.142;9.124;2024-02-14T07:02:23;3.70;;;1.10;;
79173;SDS011;68599;49.142;9.124;2024-02-14T07:04:54;3.90;;;1.90;;
79173;SDS011;68599;49.142;9.124;2024-02-14T07:07:21;2.80;;;1.30;;
79173;SDS011;68599;49.142;9.124;2024-02-14T07:09:47;3.50;;;1.20;;
79173;SDS011;68599;49.142;9.124;2024-02-14T07:12:14;5.10;;;1.50;;
79173;SDS011;68599;49.142;9.124;2024-02-14T07:14:41;3.20;;;0.80;;
79173;SDS011;68599;49.142;9.124;2024-02-14T07:17:07;2.60;;;1.20;;
79173;SDS011;68599;49.142;9.124;2024-02-14T07:19:34;2.60;;;0.90;;
79173;SDS011;68599;49.142;9.124;2024-02-14T07:22:01;3.00;;;1.00;;
79173;SDS011;68599;49.142;9.124;2024-02-14T07:24:27;2.70;;;1.20;;
79173;SDS011;68599;49.142;9.124;2024-02-14T07:26:54;3.10;;;1.10;;
79173;SDS011;68599;49.142;9.124;2024-02-14T07:29:21;2.20;;;1.20;;
79173;SDS011;68599;49.142;9.124;2024-02-14T07:31:47;2.20;;;1.00;;
79173;SDS011;68599;49.142;9.124;2024-02-14T07:34:14;3.60;;;0.80;;
79173;SDS011;68599;49.142;9.124;2024-02-14T07:36:41;2.90;;;1.10;;
79173;SDS011;68599;49.142;9.124;2024-02-14T07:39:12;3.70;;;1.20;;
79173;SDS011;68599;49.142;9.124;2024-02-14T07:41:39;2.60;;;1.00;;
79173;SDS011;68599;49.142;9.124;2024-02-14T07:44:06;2.90;;;0.80;;
79173;SDS011;68599;49.142;9.124;2024-02-14T07:46:32;2.30;;;1.00;;
79173;SDS011;68599;49.142;9.124;2024-02-14T07:48:59;3.00;;;1.00;;
79173;SDS011;68599;49.142;9.124;2024-02-14T07:51:26;2.70;;;1.10;;
79173;SDS011;68599;49.142;9.124;2024-02-14T07:53:55;2.80;;;1.10;;
79173;SDS011;68599;49.142;9.124;2024-02-14T07:56:22;3.00;;;1.00;;
79173;SDS011;68599;49.142;9.124;2024-02-14T07:58:48;4.10;;;1.40;;
79173;SDS011;68599;49.142;9.124;2024-02-14T08:01:16;4.40;;;1.20;;
79173;SDS011;68599;49.142;9.124;2024-02-14T08:03:43;3.60;;;1.30;;
79173;SDS011;68599;49.142;9.124;2024-02-14T08:06:12;4.40;;;1.00;;
79173;SDS011;68599;49.142;9.124;2024-02-14T08:08:39;2.00;;;0.80;;
79173;SDS011;68599;49.142;9.124;2024-02-14T08:11:06;1.90;;;0.80;;
79173;SDS011;68599;49.142;9.124;2024-02-14T08:13:33;3.00;;;1.40;;
79173;SDS011;68599;49.142;9.124;2024-02-14T08:16:00;2.80;;;1.30;;
79173;SDS011;68599;49.142;9.124;2024-02-14T08:18:27;2.90;;;1.40;;
79173;SDS011;68599;49.142;9.124;2024-02-14T08:20:54;2.70;;;1.20;;
79173;SDS011;68599;49.142;9.124;2024-02-14T08:23:21;4.20;;;1.70;;
79173;SDS011;68599;49.142;9.124;2024-02-14T08:25:47;5.90;;;1.00;;
79173;SDS011;68599;49.142;9.124;2024-02-14T08:30:44;3.10;;;1.20;;
79173;SDS011;68599;49.142;9.124;2024-02-14T08:35:37;3.30;;;1.10;;
79173;SDS011;68599;49.142;9.124;2024-02-14T08:38:09;3.90;;;1.20;;
79173;SDS011;68599;49.142;9.124;2024-02-14T08:40:35;3.40;;;1.30;;
79173;SDS011;68599;49.142;9.124;2024-02-14T08:45:31;4.20;;;1.20;;
79173;SDS011;68599;49.142;9.124;2024-02-14T08:47:58;2.20;;;0.90;;
79173;SDS011;68599;49.142;9.124;2024-02-14T08:50:25;4.40;;;0.80;;
79173;SDS011;68599;49.142;9.124;2024-02-14T08:52:52;4.30;;;1.10;;
79173;SDS011;68599;49.142;9.124;2024-02-14T08:55:18;3.50;;;1.00;;
79173;SDS011;68599;49.142;9.124;2024-02-14T08:57:45;3.30;;;1.10;;
79173;SDS011;68599;49.142;9.124;2024-02-14T09:00:14;3.80;;;1.80;;
79173;SDS011;68599;49.142;9.124;2024-02-14T09:02:46;3.10;;;1.30;;
79173;SDS011;68599;49.142;9.124;2024-02-14T09:05:13;4.00;;;1.10;;
79173;SDS011;68599;49.142;9.124;2024-02-14T09:07:40;4.90;;;1.00;;
79173;SDS011;68599;49.142;9.124;2024-02-14T09:10:08;3.70;;;1.30;;
79173;SDS011;68599;49.142;9.124;2024-02-14T09:12:36;4.20;;;1.00;;
79173;SDS011;68599;49.142;9.124;2024-02-14T09:15:04;3.10;;;1.30;;
79173;SDS011;68599;49.142;9.124;2024-02-14T09:17:31;4.00;;;1.70;;
79173;SDS011;68599;49.142;9.124;2024-02-14T09:19:59;2.50;;;1.20;;
79173;SDS011;68599;49.142;9.124;2024-02-14T09:22:26;3.40;;;1.30;;
79173;SDS011;68599;49.142;9.124;2024-02-14T09:24:53;4.70;;;1.20;;
79173;SDS011;68599;49.142;9.124;2024-02-14T09:27:19;2.90;;;1.10;;
79173;SDS011;68599;49.142;9.124;2024-02-14T09:29:46;2.90;;;1.80;;
79173;SDS011;68599;49.142;9.124;2024-02-14T09:32:13;4.20;;;1.50;;
79173;SDS011;68599;49.142;9.124;2024-02-14T09:34:40;4.60;;;1.70;;
79173;SDS011;68599;49.142;9.124;2024-02-14T09:37:07;4.60;;;1.50;;
79173;SDS011;68599;49.142;9.124;2024-02-14T09:39:33;4.20;;;1.70;;
79173;SDS011;68599;49.142;9.124;2024-02-14T09:42:05;4.20;;;1.30;;
79173;SDS011;68599;49.142;9.124;2024-02-14T09:44:35;1.80;;;1.00;;
79173;SDS011;68599;49.142;9.124;2024-02-14T09:47:07;2.10;;;1.10;;
79173;SDS011;68599;49.142;9.124;2024-02-14T09:49:35;3.70;;;1.40;;
79173;SDS011;68599;49.142;9.124;2024-02-14T09:52:03;3.80;;;1.10;;
79173;SDS011;68599;49.142;9.124;2024-02-14T09:54:32;12.20;;;4.60;;
79173;SDS011;68599;49.142;9.124;2024-02-14T09:57:02;6.50;;;1.70;;
79173;SDS011;68599;49.142;9.124;2024-02-14T09:59:29;3.70;;;1.00;;
79173;SDS011;68599;49.142;9.124;2024-02-14T10:01:57;2.60;;;1.20;;
79173;SDS011;68599;49.142;9.124;2024-02-14T10:04:24;5.90;;;2.50;;
79173;SDS011;68599;49.142;9.124;2024-02-14T10:06:52;3.40;;;1.40;;
79173;SDS011;68599;49.142;9.124;2024-02-14T10:09:20;2.90;;;1.00;;
79173;SDS011;68599;49.142;9.124;2024-02-14T10:11:52;3.30;;;1.20;;
79173;SDS011;68599;49.142;9.124;2024-02-14T10:14:18;5.40;;;1.00;;
79173;SDS011;68599;49.142;9.124;2024-02-14T10:16:45;3.50;;;0.80;;
79173;SDS011;68599;49.142;9.124;2024-02-14T10:19:15;2.10;;;0.80;;
79173;SDS011;68599;49.142;9.124;2024-02-14T10:21:43;3.50;;;0.90;;
79173;SDS011;68599;49.142;9.124;2024-02-14T10:24:21;1.90;;;0.90;;
79173;SDS011;68599;49.142;9.124;2024-02-14T10:26:48;2.10;;;1.00;;
79173;SDS011;68599;49.142;9.124;2024-02-14T10:29:15;1.90;;;1.00;;
79173;SDS011;68599;49.142;9.124;2024-02-14T10:31:41;3.80;;;1.40;;
79173;SDS011;68599;49.142;9.124;2024-02-14T10:34:09;2.90;;;1.00;;
79173;SDS011;68599;49.142;9.124;2024-02-14T10:36:37;2.20;;;0.70;;
79173;SDS011;68599;49.142;9.124;2024-02-14T10:39:06;1.50;;;0.50;;
79173;SDS011;68599;49.142;9.124;2024-02-14T10:41:36;1.90;;;1.00;;
79173;SDS011;68599;49.142;9.124;2024-02-14T10:44:03;2.00;;;0.70;;
79173;SDS011;68599;49.142;9.124;2024-02-14T10:46:35;2.60;;;1.00;;
79173;SDS011;68599;49.142;9.124;2024-02-14T10:49:04;1.80;;;0.80;;
79173;SDS011;68599;49.142;9.124;2024-02-14T10:51:33;2.00;;;0.80;;
79173;SDS011;68599;49.142;9.124;2024-02-14T10:54:10;2.00;;;0.80;;
79173;SDS011;68599;49.142;9.124;2024-02-14T10:56:39;2.90;;;0.70;;
79173;SDS011;68599;49.142;9.124;2024-02-14T10:59:09;2.00;;;0.80;;
79173;SDS011;68599;49.142;9.124;2024-02-14T11:01:37;2.70;;;1.20;;
79173;SDS011;68599;49.142;9.124;2024-02-14T11:04:05;2.40;;;1.10;;
79173;SDS011;68599;49.142;9.124;2024-02-14T11:06:46;3.10;;;0.90;;
79173;SDS011;68599;49.142;9.124;2024-02-14T11:09:31;1.80;;;0.70;;
79173;SDS011;68599;49.142;9.124;2024-02-14T11:12:07;2.40;;;0.80;;
79173;SDS011;68599;49.142;9.124;2024-02-14T11:14:35;2.90;;;0.60;;
79173;SDS011;68599;49.142;9.124;2024-02-14T11:17:13;1.70;;;0.70;;
79173;SDS011;68599;49.142;9.124;2024-02-14T11:19:40;2.10;;;0.80;;
79173;SDS011;68599;49.142;9.124;2024-02-14T11:22:11;2.80;;;1.00;;
79173;SDS011;68599;49.142;9.124;2024-02-14T11:24:39;3.00;;;1.00;;
79173;SDS011;68599;49.142;9.124;2024-02-14T11:27:10;2.90;;;0.80;;
79173;SDS011;68599;49.142;9.124;2024-02-14T11:29:59;2.10;;;0.80;;
79173;SDS011;68599;49.142;9.124;2024-02-14T11:32:27;1.90;;;0.60;;
79173;SDS011;68599;49.142;9.124;2024-02-14T11:34:55;2.70;;;1.10;;
79173;SDS011;68599;49.142;9.124;2024-02-14T11:37:29;1.30;;;0.50;;
79173;SDS011;68599;49.142;9.124;2024-02-14T11:39:58;1.70;;;0.40;;
79173;SDS011;68599;49.142;9.124;2024-02-14T11:42:24;1.80;;;0.80;;
79173;SDS011;68599;49.142;9.124;2024-02-14T11:44:52;1.00;;;0.40;;
79173;SDS011;68599;49.142;9.124;2024-02-14T11:47:22;3.30;;;0.70;;
79173;SDS011;68599;49.142;9.124;2024-02-14T11:49:50;1.80;;;0.70;;
79173;SDS011;68599;49.142;9.124;2024-02-14T11:52:18;1.70;;;0.40;;
79173;SDS011;68599;49.142;9.124;2024-02-14T11:54:46;1.70;;;0.60;;
79173;SDS011;68599;49.142;9.124;2024-02-14T11:57:17;3.00;;;0.80;;
79173;SDS011;68599;49.142;9.124;2024-02-14T11:59:50;2.40;;;0.60;;
79173;SDS011;68599;49.142;9.124;2024-02-14T12:02:20;1.20;;;0.40;;
79173;SDS011;68599;49.142;9.124;2024-02-14T12:04:47;2.70;;;0.80;;
79173;SDS011;68599;49.142;9.124;2024-02-14T12:07:17;2.40;;;0.90;;
79173;SDS011;68599;49.142;9.124;2024-02-14T12:09:45;2.00;;;0.80;;
79173;SDS011;68599;49.142;9.124;2024-02-14T12:12:12;2.70;;;0.70;;
79173;SDS011;68599;49.142;9.124;2024-02-14T12:14:39;1.70;;;0.70;;
79173;SDS011;68599;49.142;9.124;2024-02-14T12:17:05;2.50;;;0.90;;
79173;SDS011;68599;49.142;9.124;2024-02-14T12:19:33;2.90;;;1.00;;
79173;SDS011;68599;49.142;9.124;2024-02-14T12:22:01;3.40;;;0.90;;
79173;SDS011;68599;49.142;9.124;2024-02-14T12:26:55;1.30;;;0.60;;
79173;SDS011;68599;49.142;9.124;2024-02-14T12:29:23;2.80;;;0.50;;
79173;SDS011;68599;49.142;9.124;2024-02-14T12:31:51;1.30;;;0.70;;
79173;SDS011;68599;49.142;9.124;2024-02-14T12:34:17;1.60;;;0.70;;
79173;SDS011;68599;49.142;9.124;2024-02-14T12:36:51;1.20;;;0.50;;
79173;SDS011;68599;49.142;9.124;2024-02-14T12:39:17;1.70;;;0.70;;
79173;SDS011;68599;49.142;9.124;2024-02-14T12:41:45;1.30;;;0.40;;
79173;SDS011;68599;49.142;9.124;2024-02-14T12:44:11;1.20;;;0.50;;
79173;SDS011;68599;49.142;9.124;2024-02-14T12:46:38;1.60;;;0.60;;
79173;SDS011;68599;49.142;9.124;2024-02-14T12:49:05;2.10;;;0.50;;
79173;SDS011;68599;49.142;9.124;2024-02-14T12:51:32;1.20;;;0.40;;
79173;SDS011;68599;49.142;9.124;2024-02-14T12:53:59;1.00;;;0.50;;
79173;SDS011;68599;49.142;9.124;2024-02-14T12:56:26;1.10;;;0.30;;
79173;SDS011;68599;49.142;9.124;2024-02-14T12:58:53;1.70;;;0.40;;
79173;SDS011;68599;49.142;9.124;2024-02-14T13:01:20;1.20;;;0.50;;
79173;SDS011;68599;49.142;9.124;2024-02-14T13:03:47;1.70;;;0.70;;
79173;SDS011;68599;49.142;9.124;2024-02-14T13:06:14;2.30;;;0.70;;
79173;SDS011;68599;49.142;9.124;2024-02-14T13:11:08;1.30;;;0.60;;
79173;SDS011;68599;49.142;9.124;2024-02-14T13:13:35;1.40;;;0.60;;
79173;SDS011;68599;49.142;9.124;2024-02-14T13:16:03;1.60;;;0.80;;
79173;SDS011;68599;49.142;9.124;2024-02-14T13:18:33;1.60;;;0.70;;
79173;SDS011;68599;49.142;9.124;2024-02-14T13:21:02;2.10;;;0.40;;
79173;SDS011;68599;49.142;9.124;2024-02-14T13:23:29;0.80;;;0.40;;
79173;SDS011;68599;49.142;9.124;2024-02-14T13:25:56;4.30;;;0.90;;
79173;SDS011;68599;49.142;9.124;2024-02-14T13:28:23;2.40;;;0.90;;
79173;SDS011;68599;49.142;9.124;2024-02-14T13:30:49;2.50;;;0.80;;
79173;SDS011;68599;49.142;9.124;2024-02-14T13:33:19;1.50;;;0.80;;
79173;SDS011;68599;49.142;9.124;2024-02-14T13:35:46;2.20;;;1.00;;
79173;SDS011;68599;49.142;9.124;2024-02-14T13:38:12;2.10;;;1.40;;
79173;SDS011;68599;49.142;9.124;2024-02-14T13:40:39;4.10;;;1.50;;
79173;SDS011;68599;49.142;9.124;2024-02-14T13:43:05;2.20;;;1.30;;
79173;SDS011;68599;49.142;9.124;2024-02-14T13:45:41;3.20;;;1.90;;
79173;SDS011;68599;49.142;9.124;2024-02-14T13:48:11;2.50;;;0.70;;
79173;SDS011;68599;49.142;9.124;2024-02-14T13:50:39;2.10;;;0.80;;
79173;SDS011;68599;49.142;9.124;2024-02-14T13:53:06;1.70;;;0.70;;
79173;SDS011;68599;49.142;9.124;2024-02-14T13:55:33;1.50;;;0.80;;
79173;SDS011;68599;49.142;9.124;2024-02-14T13:58:00;2.80;;;0.90;;
79173;SDS011;68599;49.142;9.124;2024-02-14T14:00:27;3.00;;;1.00;;
79173;SDS011;68599;49.142;9.124;2024-02-14T14:02:54;1.90;;;1.10;;
79173;SDS011;68599;49.142;9.124;2024-02-14T14:05:22;2.60;;;1.00;;
79173;SDS011;68599;49.142;9.124;2024-02-14T14:07:48;2.70;;;1.00;;
79173;SDS011;68599;49.142;9.124;2024-02-14T14:10:24;3.50;;;1.00;;
79173;SDS011;68599;49.142;9.124;2024-02-14T14:12:53;2.50;;;1.00;;
79173;SDS011;68599;49.142;9.124;2024-02-14T14:15:20;3.70;;;0.90;;
79173;SDS011;68599;49.142;9.124;2024-02-14T14:17:48;2.60;;;1.10;;
79173;SDS011;68599;49.142;9.124;2024-02-14T14:20:15;4.70;;;1.50;;
79173;SDS011;68599;49.142;9.124;2024-02-14T14:22:42;2.40;;;1.20;;
79173;SDS011;68599;49.142;9.124;2024-02-14T14:25:08;4.00;;;1.20;;
79173;SDS011;68599;49.142;9.124;2024-02-14T14:27:35;2.00;;;0.90;;
79173;SDS011;68599;49.142;9.124;2024-02-14T14:30:01;2.40;;;0.70;;
79173;SDS011;68599;49.142;9.124;2024-02-14T14:32:29;4.00;;;0.90;;
79173;SDS011;68599;49.142;9.124;2024-02-14T14:34:56;2.50;;;1.10;;
79173;SDS011;68599;49.142;9.124;2024-02-14T14:37:22;1.80;;;0.80;;
79173;SDS011;68599;49.142;9.124;2024-02-14T14:39:49;1.90;;;1.00;;
79173;SDS011;68599;49.142;9.124;2024-02-14T14:42:16;3.10;;;1.20;;
79173;SDS011;68599;49.142;9.124;2024-02-14T14:44:44;2.80;;;1.20;;
79173;SDS011;68599;49.142;9.124;2024-02-14T14:47:11;2.10;;;0.90;;
79173;SDS011;68599;49.142;9.124;2024-02-14T14:49:39;2.60;;;1.10;;
79173;SDS011;68599;49.142;9.124;2024-02-14T14:52:06;2.40;;;0.80;;
79173;SDS011;68599;49.142;9.124;2024-02-14T14:54:33;2.10;;;0.50;;
79173;SDS011;68599;49.142;9.124;2024-02-14T14:56:59;1.50;;;0.60;;
79173;SDS011;68599;49.142;9.124;2024-02-14T14:59:30;1.60;;;0.60;;
79173;SDS011;68599;49.142;9.124;2024-02-14T15:01:57;2.20;;;0.60;;
79173;SDS011;68599;49.142;9.124;2024-02-14T15:04:24;1.40;;;0.60;;
79173;SDS011;68599;49.142;9.124;2024-02-14T15:06:50;3.10;;;0.70;;
79173;SDS011;68599;49.142;9.124;2024-02-14T15:09:19;3.50;;;0.70;;
79173;SDS011;68599;49.142;9.124;2024-02-14T15:11:46;1.80;;;0.80;;